createdAt,value
2016-12-14T00:00:16.679Z,1015.55
2016-12-14T00:00:57.253Z,1015.56
2016-12-14T00:01:37.832Z,1015.55
2016-12-14T00:02:18.414Z,1015.55
2016-12-14T00:02:59.008Z,1015.57
2016-12-14T00:03:39.587Z,1015.51
2016-12-14T00:04:20.187Z,1015.53
2016-12-14T00:05:00.787Z,1015.53
2016-12-14T00:05:41.403Z,1015.51
2016-12-14T00:06:21.994Z,1015.53
2016-12-14T00:07:02.579Z,1015.47
2016-12-14T00:07:43.171Z,1015.48
2016-12-14T00:08:23.754Z,1015.49
2016-12-14T00:09:04.334Z,1015.47
2016-12-14T00:09:44.918Z,1015.52
2016-12-14T00:10:25.496Z,1015.51
2016-12-14T00:11:06.083Z,1015.5
2016-12-14T00:11:46.665Z,1015.52
2016-12-14T00:12:27.271Z,1015.44
2016-12-14T00:13:07.850Z,1015.49
2016-12-14T00:13:48.441Z,1015.5
2016-12-14T00:14:29.032Z,1015.47
2016-12-14T00:15:09.620Z,1015.45
2016-12-14T00:15:50.217Z,1015.45
2016-12-14T00:16:30.797Z,1015.42
2016-12-14T00:17:11.379Z,1015.42
2016-12-14T00:17:51.963Z,1015.42
2016-12-14T00:18:32.560Z,1015.45
2016-12-14T00:19:13.156Z,1015.45
2016-12-14T00:19:53.742Z,1015.46
2016-12-14T00:20:34.319Z,1015.43
2016-12-14T00:21:14.902Z,1015.44
2016-12-14T00:21:55.492Z,1015.43
2016-12-14T00:22:36.085Z,1015.44
2016-12-14T00:23:16.678Z,1015.42
2016-12-14T00:23:57.264Z,1015.42
2016-12-14T00:24:37.853Z,1015.42
2016-12-14T00:25:18.434Z,1015.41
2016-12-14T00:25:59.015Z,1015.46
2016-12-14T00:26:39.606Z,1015.42
2016-12-14T00:27:20.201Z,1015.42
2016-12-14T00:28:00.771Z,1015.44
2016-12-14T00:28:41.356Z,1015.4
2016-12-14T00:29:21.942Z,1015.42
2016-12-14T00:30:02.520Z,1015.42
2016-12-14T00:30:43.115Z,1015.43
2016-12-14T00:31:23.698Z,1015.4
2016-12-14T00:32:04.286Z,1015.44
2016-12-14T00:32:44.879Z,1015.43
2016-12-14T00:33:25.455Z,1015.44
2016-12-14T00:34:06.041Z,1015.44
2016-12-14T00:34:46.634Z,1015.43
2016-12-14T00:35:27.209Z,1015.43
2016-12-14T00:36:07.794Z,1015.41
2016-12-14T00:36:48.366Z,1015.42
2016-12-14T00:37:28.948Z,1015.4
2016-12-14T00:38:09.541Z,1015.41
2016-12-14T00:38:50.124Z,1015.36
2016-12-14T00:39:30.702Z,1015.38
2016-12-14T00:40:11.289Z,1015.36
2016-12-14T00:40:51.880Z,1015.37
2016-12-14T00:41:32.464Z,1015.36
2016-12-14T00:42:13.047Z,1015.38
2016-12-14T00:42:53.634Z,1015.34
2016-12-14T00:43:34.214Z,1015.35
2016-12-14T00:44:14.796Z,1015.33
2016-12-14T00:44:55.394Z,1015.31
2016-12-14T00:45:35.984Z,1015.32
2016-12-14T00:46:16.562Z,1015.28
2016-12-14T00:46:57.165Z,1015.27
2016-12-14T00:47:37.762Z,1015.28
2016-12-14T00:48:18.346Z,1015.3
2016-12-14T00:48:58.937Z,1015.27
2016-12-14T00:49:39.520Z,1015.28
2016-12-14T00:50:20.098Z,1015.29
2016-12-14T00:51:00.680Z,1015.26
2016-12-14T00:51:41.262Z,1015.25
2016-12-14T00:52:21.850Z,1015.27
2016-12-14T00:53:02.431Z,1015.25
2016-12-14T00:53:43.012Z,1015.23
2016-12-14T00:54:23.594Z,1015.21
2016-12-14T00:55:04.201Z,1015.17
2016-12-14T00:55:44.782Z,1015.17
2016-12-14T00:56:25.364Z,1015.16
2016-12-14T00:57:05.951Z,1015.16
2016-12-14T00:57:46.540Z,1015.16
2016-12-14T00:58:27.135Z,1015.18
2016-12-14T00:59:07.722Z,1015.16
2016-12-14T00:59:48.316Z,1015.15
2016-12-14T01:00:28.900Z,1015.14
2016-12-14T01:01:09.486Z,1015.13
2016-12-14T01:01:50.066Z,1015.15
2016-12-14T01:02:30.653Z,1015.15
2016-12-14T01:03:11.230Z,1015.16
2016-12-14T01:03:51.816Z,1015.18
2016-12-14T01:04:32.404Z,1015.16
2016-12-14T01:05:13.001Z,1015.13
2016-12-14T01:05:53.595Z,1015.15
2016-12-14T01:06:34.197Z,1015.11
2016-12-14T01:07:14.777Z,1015.14
2016-12-14T01:07:55.368Z,1015.13
2016-12-14T01:08:35.952Z,1015.18
2016-12-14T01:09:16.540Z,1015.16
2016-12-14T01:09:57.130Z,1015.16
2016-12-14T01:10:37.722Z,1015.14
2016-12-14T01:11:18.324Z,1015.14
2016-12-14T01:11:58.906Z,1015.11
2016-12-14T01:12:39.488Z,1015.11
2016-12-14T01:13:20.067Z,1015.1
2016-12-14T01:14:00.660Z,1015.09
2016-12-14T01:14:41.238Z,1015.07
2016-12-14T01:15:21.830Z,1015.09
2016-12-14T01:16:02.410Z,1015.05
2016-12-14T01:16:42.992Z,1015.05
2016-12-14T01:17:23.580Z,1015.07
2016-12-14T01:18:04.171Z,1015.03
2016-12-14T01:18:44.785Z,1015.08
2016-12-14T01:19:25.381Z,1015.06
2016-12-14T01:20:05.968Z,1015.05
2016-12-14T01:20:46.547Z,1015.01
2016-12-14T01:21:27.129Z,1015.05
2016-12-14T01:22:07.718Z,1015.01
2016-12-14T01:22:48.325Z,1015.05
2016-12-14T01:23:28.907Z,1015
2016-12-14T01:24:09.496Z,1015.02
2016-12-14T01:24:50.093Z,1014.97
2016-12-14T01:25:30.665Z,1014.99
2016-12-14T01:26:11.255Z,1014.99
2016-12-14T01:26:51.851Z,1014.98
2016-12-14T01:27:32.439Z,1015
2016-12-14T01:28:13.055Z,1014.97
2016-12-14T01:28:53.653Z,1014.97
2016-12-14T01:29:34.245Z,1015
2016-12-14T01:30:14.818Z,1014.95
2016-12-14T01:30:55.410Z,1014.92
2016-12-14T01:31:36.012Z,1014.95
2016-12-14T01:32:16.578Z,1014.92
2016-12-14T01:32:57.169Z,1014.93
2016-12-14T01:33:37.775Z,1014.9
2016-12-14T01:34:18.382Z,1014.91
2016-12-14T01:34:58.977Z,1014.91
2016-12-14T01:35:39.564Z,1014.91
2016-12-14T01:36:20.181Z,1014.93
2016-12-14T01:37:00.782Z,1014.92
2016-12-14T01:37:41.379Z,1014.89
2016-12-14T01:38:21.977Z,1014.92
2016-12-14T01:39:02.569Z,1014.93
2016-12-14T01:39:43.168Z,1014.91
2016-12-14T01:40:23.799Z,1014.94
2016-12-14T01:41:04.382Z,1014.92
2016-12-14T01:41:44.968Z,1014.96
2016-12-14T01:42:25.546Z,1014.96
2016-12-14T01:43:06.139Z,1014.95
2016-12-14T01:43:46.749Z,1014.98
2016-12-14T01:44:27.345Z,1014.99
2016-12-14T01:45:07.931Z,1014.99
2016-12-14T01:45:48.521Z,1015.04
2016-12-14T01:46:29.099Z,1014.99
2016-12-14T01:47:09.691Z,1015.01
2016-12-14T01:47:50.266Z,1015
2016-12-14T01:48:30.857Z,1015
2016-12-14T01:49:11.452Z,1014.99
2016-12-14T01:49:52.055Z,1014.97
2016-12-14T01:50:32.643Z,1015.01
2016-12-14T01:51:13.231Z,1015.04
2016-12-14T01:51:53.828Z,1015.01
2016-12-14T01:52:34.420Z,1015
2016-12-14T01:53:15.026Z,1015
2016-12-14T01:53:55.618Z,1015
2016-12-14T01:54:36.253Z,1015
2016-12-14T01:55:16.830Z,1014.97
2016-12-14T01:55:57.410Z,1015
2016-12-14T01:56:37.998Z,1014.96
2016-12-14T01:57:18.574Z,1014.99
2016-12-14T01:57:59.154Z,1014.97
2016-12-14T01:58:39.735Z,1014.93
2016-12-14T01:59:20.314Z,1014.95
2016-12-14T02:00:00.896Z,1014.95
2016-12-14T02:00:41.484Z,1014.97
2016-12-14T02:01:22.079Z,1014.92
2016-12-14T02:02:02.645Z,1014.94
2016-12-14T02:02:43.227Z,1014.93
2016-12-14T02:03:23.822Z,1014.92
2016-12-14T02:04:04.400Z,1014.94
2016-12-14T02:04:45.000Z,1014.93
2016-12-14T02:05:25.587Z,1014.92
2016-12-14T02:06:06.197Z,1014.95
2016-12-14T02:06:46.796Z,1014.95
2016-12-14T02:07:27.403Z,1014.97
2016-12-14T02:08:07.983Z,1014.92
2016-12-14T02:08:48.561Z,1014.96
2016-12-14T02:09:29.153Z,1014.92
2016-12-14T02:10:09.756Z,1014.93
2016-12-14T02:10:50.346Z,1014.94
2016-12-14T02:11:30.935Z,1014.97
2016-12-14T02:12:11.515Z,1014.93
2016-12-14T02:12:52.106Z,1014.94
2016-12-14T02:13:32.680Z,1014.93
2016-12-14T02:14:13.263Z,1014.93
2016-12-14T02:14:53.864Z,1014.92
2016-12-14T02:15:34.434Z,1014.93
2016-12-14T02:16:15.024Z,1014.95
2016-12-14T02:16:55.616Z,1014.94
2016-12-14T02:17:36.219Z,1014.97
2016-12-14T02:18:16.809Z,1014.94
2016-12-14T02:18:57.422Z,1014.95
2016-12-14T02:19:38.013Z,1014.96
2016-12-14T02:20:18.597Z,1014.91
2016-12-14T02:20:59.182Z,1014.92
2016-12-14T02:21:39.770Z,1014.94
2016-12-14T02:22:20.351Z,1014.95
2016-12-14T02:23:00.938Z,1014.93
2016-12-14T02:23:41.527Z,1014.93
2016-12-14T02:24:22.110Z,1014.92
2016-12-14T02:25:02.708Z,1014.93
2016-12-14T02:25:43.293Z,1014.91
2016-12-14T02:26:23.896Z,1014.89
2016-12-14T02:27:04.483Z,1014.91
2016-12-14T02:27:45.077Z,1014.91
2016-12-14T02:28:25.660Z,1014.9
2016-12-14T02:29:06.255Z,1014.91
2016-12-14T02:29:46.860Z,1014.92
2016-12-14T02:30:27.437Z,1014.92
2016-12-14T02:31:08.015Z,1014.89
2016-12-14T02:31:48.610Z,1014.95
2016-12-14T02:32:29.203Z,1014.92
2016-12-14T02:33:09.784Z,1014.9
2016-12-14T02:33:50.367Z,1014.89
2016-12-14T02:34:30.954Z,1014.89
2016-12-14T02:35:11.528Z,1014.87
2016-12-14T02:35:52.117Z,1014.87
2016-12-14T02:36:32.728Z,1014.87
2016-12-14T02:37:13.317Z,1014.88
2016-12-14T02:37:53.925Z,1014.85
2016-12-14T02:38:34.507Z,1014.84
2016-12-14T02:39:15.098Z,1014.84
2016-12-14T02:39:55.687Z,1014.81
2016-12-14T02:40:36.285Z,1014.82
2016-12-14T02:41:16.883Z,1014.83
2016-12-14T02:41:57.488Z,1014.8
2016-12-14T02:42:38.082Z,1014.85
2016-12-14T02:43:18.675Z,1014.81
2016-12-14T02:43:59.259Z,1014.79
2016-12-14T02:44:39.844Z,1014.8
2016-12-14T02:45:20.425Z,1014.77
2016-12-14T02:46:01.013Z,1014.76
2016-12-14T02:46:41.609Z,1014.75
2016-12-14T02:47:22.209Z,1014.8
2016-12-14T02:48:02.797Z,1014.8
2016-12-14T02:48:43.386Z,1014.74
2016-12-14T02:49:23.979Z,1014.79
2016-12-14T02:50:04.561Z,1014.78
2016-12-14T02:50:45.153Z,1014.75
2016-12-14T02:51:25.733Z,1014.77
2016-12-14T02:52:06.316Z,1014.77
2016-12-14T02:52:46.909Z,1014.72
2016-12-14T02:53:27.513Z,1014.74
2016-12-14T02:54:08.113Z,1014.74
2016-12-14T02:54:48.715Z,1014.72
2016-12-14T02:55:29.297Z,1014.71
2016-12-14T02:56:09.885Z,1014.71
2016-12-14T02:56:50.480Z,1014.74
2016-12-14T02:57:31.060Z,1014.72
2016-12-14T02:58:11.646Z,1014.72
2016-12-14T02:58:52.247Z,1014.68
2016-12-14T02:59:32.851Z,1014.69
2016-12-14T03:00:13.434Z,1014.66
2016-12-14T03:00:54.012Z,1014.69
2016-12-14T03:01:34.601Z,1014.68
2016-12-14T03:02:15.212Z,1014.66
2016-12-14T03:02:55.812Z,1014.69
2016-12-14T03:03:36.393Z,1014.62
2016-12-14T03:04:16.976Z,1014.64
2016-12-14T03:04:57.560Z,1014.65
2016-12-14T03:05:38.142Z,1014.63
2016-12-14T03:06:18.746Z,1014.61
2016-12-14T03:06:59.328Z,1014.59
2016-12-14T03:07:39.930Z,1014.62
2016-12-14T03:08:20.518Z,1014.59
2016-12-14T03:09:01.110Z,1014.57
2016-12-14T03:09:41.696Z,1014.57
2016-12-14T03:10:22.276Z,1014.59
2016-12-14T03:11:02.853Z,1014.57
2016-12-14T03:11:43.442Z,1014.58
2016-12-14T03:12:24.024Z,1014.53
2016-12-14T03:13:04.636Z,1014.56
2016-12-14T03:13:45.217Z,1014.53
2016-12-14T03:14:25.797Z,1014.54
2016-12-14T03:15:06.394Z,1014.53
2016-12-14T03:15:46.982Z,1014.53
2016-12-14T03:16:27.562Z,1014.52
2016-12-14T03:17:08.148Z,1014.5
2016-12-14T03:17:48.740Z,1014.51
2016-12-14T03:18:29.364Z,1014.53
2016-12-14T03:19:09.947Z,1014.49
2016-12-14T03:19:50.551Z,1014.52
2016-12-14T03:20:31.164Z,1014.52
2016-12-14T03:21:11.751Z,1014.5
2016-12-14T03:21:52.350Z,1014.5
2016-12-14T03:22:32.943Z,1014.52
2016-12-14T03:23:13.533Z,1014.5
2016-12-14T03:23:54.112Z,1014.49
2016-12-14T03:24:34.712Z,1014.51
2016-12-14T03:25:15.299Z,1014.46
2016-12-14T03:25:55.890Z,1014.43
2016-12-14T03:26:36.514Z,1014.48
2016-12-14T03:27:17.083Z,1014.46
2016-12-14T03:27:57.665Z,1014.47
2016-12-14T03:28:38.275Z,1014.43
2016-12-14T03:29:18.892Z,1014.47
2016-12-14T03:29:59.488Z,1014.46
2016-12-14T03:30:40.070Z,1014.46
2016-12-14T03:31:20.670Z,1014.46
2016-12-14T03:32:01.248Z,1014.39
2016-12-14T03:32:41.830Z,1014.41
2016-12-14T03:33:22.419Z,1014.38
2016-12-14T03:34:03.013Z,1014.42
2016-12-14T03:34:43.590Z,1014.43
2016-12-14T03:35:24.173Z,1014.39
2016-12-14T03:36:04.749Z,1014.4
2016-12-14T03:36:45.344Z,1014.37
2016-12-14T03:37:25.932Z,1014.34
2016-12-14T03:38:06.530Z,1014.35
2016-12-14T03:38:47.135Z,1014.36
2016-12-14T03:39:27.725Z,1014.35
2016-12-14T03:40:08.323Z,1014.36
2016-12-14T03:40:48.908Z,1014.35
2016-12-14T03:41:29.496Z,1014.35
2016-12-14T03:42:10.091Z,1014.33
2016-12-14T03:42:50.701Z,1014.34
2016-12-14T03:43:31.287Z,1014.33
2016-12-14T03:44:11.887Z,1014.32
2016-12-14T03:44:52.455Z,1014.31
2016-12-14T03:45:33.056Z,1014.36
2016-12-14T03:46:13.647Z,1014.33
2016-12-14T03:46:54.225Z,1014.29
2016-12-14T03:47:34.822Z,1014.3
2016-12-14T03:48:15.407Z,1014.3
2016-12-14T03:48:56.014Z,1014.24
2016-12-14T03:49:36.618Z,1014.27
2016-12-14T03:50:17.218Z,1014.27
2016-12-14T03:50:57.808Z,1014.26
2016-12-14T03:51:38.396Z,1014.24
2016-12-14T03:52:18.981Z,1014.27
2016-12-14T03:52:59.560Z,1014.26
2016-12-14T03:53:40.158Z,1014.25
2016-12-14T03:54:20.740Z,1014.23
2016-12-14T03:55:01.330Z,1014.21
2016-12-14T03:55:41.923Z,1014.17
2016-12-14T03:56:22.522Z,1014.2
2016-12-14T03:57:03.106Z,1014.17
2016-12-14T03:57:43.692Z,1014.17
2016-12-14T03:58:24.274Z,1014.2
2016-12-14T03:59:04.864Z,1014.17
2016-12-14T03:59:45.467Z,1014.18
2016-12-14T04:00:26.076Z,1014.14
2016-12-14T04:01:06.686Z,1014.14
2016-12-14T04:01:47.287Z,1014.15
2016-12-14T04:02:27.879Z,1014.15
2016-12-14T04:03:08.458Z,1014.13
2016-12-14T04:03:49.037Z,1014.14
2016-12-14T04:04:29.624Z,1014.11
2016-12-14T04:05:10.214Z,1014.12
2016-12-14T04:05:50.839Z,1014.15
2016-12-14T04:06:31.416Z,1014.12
2016-12-14T04:07:12.005Z,1014.15
2016-12-14T04:07:52.594Z,1014.14
2016-12-14T04:08:33.171Z,1014.17
2016-12-14T04:09:13.784Z,1014.15
2016-12-14T04:09:54.349Z,1014.17
2016-12-14T04:10:34.935Z,1014.13
2016-12-14T04:11:15.522Z,1014.14
2016-12-14T04:11:56.104Z,1014.13
2016-12-14T04:12:36.681Z,1014.13
2016-12-14T04:13:17.304Z,1014.1
2016-12-14T04:13:57.895Z,1014.09
2016-12-14T04:14:38.472Z,1014.11
2016-12-14T04:15:19.052Z,1014.1
2016-12-14T04:15:59.645Z,1014.13
2016-12-14T04:16:40.223Z,1014.09
2016-12-14T04:17:20.824Z,1014.09
2016-12-14T04:18:01.415Z,1014.05
2016-12-14T04:18:42.012Z,1014.07
2016-12-14T04:19:22.597Z,1014.08
2016-12-14T04:20:03.182Z,1014.07
2016-12-14T04:20:43.777Z,1014.06
2016-12-14T04:21:24.372Z,1014.04
2016-12-14T04:22:04.969Z,1014.08
2016-12-14T04:22:45.544Z,1014.05
2016-12-14T04:23:26.128Z,1014.08
2016-12-14T04:24:06.705Z,1014.07
2016-12-14T04:24:47.285Z,1014.04
2016-12-14T04:25:27.875Z,1014.05
2016-12-14T04:26:08.464Z,1014.07
2016-12-14T04:26:49.037Z,1014.04
2016-12-14T04:27:29.631Z,1014.04
2016-12-14T04:28:10.233Z,1014.09
2016-12-14T04:28:50.809Z,1014.06
2016-12-14T04:29:31.408Z,1014.06
2016-12-14T04:30:11.992Z,1014.04
2016-12-14T04:30:52.597Z,1014.06
2016-12-14T04:31:33.194Z,1014.02
2016-12-14T04:32:13.784Z,1013.99
2016-12-14T04:32:54.372Z,1014.01
2016-12-14T04:33:34.950Z,1014.04
2016-12-14T04:34:15.562Z,1014
2016-12-14T04:34:56.163Z,1014.03
2016-12-14T04:35:36.753Z,1014.01
2016-12-14T04:36:17.346Z,1013.99
2016-12-14T04:36:57.926Z,1013.96
2016-12-14T04:37:38.514Z,1013.97
2016-12-14T04:38:19.105Z,1013.97
2016-12-14T04:38:59.707Z,1013.94
2016-12-14T04:39:40.293Z,1013.95
2016-12-14T04:40:20.875Z,1013.97
2016-12-14T04:41:01.455Z,1013.96
2016-12-14T04:41:42.058Z,1013.93
2016-12-14T04:42:22.658Z,1013.96
2016-12-14T04:43:03.267Z,1013.93
2016-12-14T04:43:43.857Z,1013.92
2016-12-14T04:44:24.470Z,1013.91
2016-12-14T04:45:05.046Z,1013.91
2016-12-14T04:45:45.624Z,1013.91
2016-12-14T04:46:26.200Z,1013.94
2016-12-14T04:47:06.783Z,1013.91
2016-12-14T04:47:47.372Z,1013.87
2016-12-14T04:48:27.972Z,1013.85
2016-12-14T04:49:08.557Z,1013.87
2016-12-14T04:49:49.135Z,1013.87
2016-12-14T04:50:29.720Z,1013.83
2016-12-14T04:51:10.300Z,1013.85
2016-12-14T04:51:50.895Z,1013.81
2016-12-14T04:52:31.479Z,1013.86
2016-12-14T04:53:12.094Z,1013.83
2016-12-14T04:53:52.705Z,1013.8
2016-12-14T04:54:33.295Z,1013.84
2016-12-14T04:55:13.881Z,1013.85
2016-12-14T04:55:54.467Z,1013.84
2016-12-14T04:56:35.051Z,1013.85
2016-12-14T04:57:15.645Z,1013.86
2016-12-14T04:57:56.220Z,1013.83
2016-12-14T04:58:36.809Z,1013.84
2016-12-14T04:59:17.394Z,1013.87
2016-12-14T04:59:57.988Z,1013.88
2016-12-14T05:00:38.586Z,1013.86
2016-12-14T05:01:19.174Z,1013.82
2016-12-14T05:01:59.764Z,1013.86
2016-12-14T05:02:40.367Z,1013.84
2016-12-14T05:03:20.953Z,1013.86
2016-12-14T05:04:01.530Z,1013.84
2016-12-14T05:04:42.139Z,1013.82
2016-12-14T05:05:22.728Z,1013.83
2016-12-14T05:06:03.340Z,1013.8
2016-12-14T05:06:43.921Z,1013.81
2016-12-14T05:07:24.511Z,1013.81
2016-12-14T05:08:05.091Z,1013.8
2016-12-14T05:08:45.676Z,1013.83
2016-12-14T05:09:26.265Z,1013.82
2016-12-14T05:10:06.868Z,1013.82
2016-12-14T05:10:47.459Z,1013.84
2016-12-14T05:11:28.042Z,1013.82
2016-12-14T05:12:08.613Z,1013.81
2016-12-14T05:12:49.210Z,1013.79
2016-12-14T05:13:29.792Z,1013.78
2016-12-14T05:14:10.376Z,1013.8
2016-12-14T05:14:50.956Z,1013.81
2016-12-14T05:15:31.546Z,1013.79
2016-12-14T05:16:12.132Z,1013.82
2016-12-14T05:16:52.718Z,1013.81
2016-12-14T05:17:34.260Z,1013.79
2016-12-14T05:18:14.855Z,1013.8
2016-12-14T05:18:55.442Z,1013.83
2016-12-14T05:19:36.020Z,1013.83
2016-12-14T05:20:16.610Z,1013.84
2016-12-14T05:20:57.194Z,1013.82
2016-12-14T05:21:37.812Z,1013.84
2016-12-14T05:22:18.398Z,1013.86
2016-12-14T05:22:58.981Z,1013.86
2016-12-14T05:23:39.560Z,1013.85
2016-12-14T05:24:20.153Z,1013.83
2016-12-14T05:25:00.725Z,1013.86
2016-12-14T05:25:41.307Z,1013.84
2016-12-14T05:26:21.896Z,1013.86
2016-12-14T05:27:02.483Z,1013.82
2016-12-14T05:27:43.078Z,1013.83
2016-12-14T05:28:23.677Z,1013.82
2016-12-14T05:29:04.267Z,1013.83
2016-12-14T05:29:44.877Z,1013.85
2016-12-14T05:30:25.477Z,1013.81
2016-12-14T05:31:06.097Z,1013.83
2016-12-14T05:31:46.692Z,1013.84
2016-12-14T05:32:27.287Z,1013.83
2016-12-14T05:33:07.881Z,1013.84
2016-12-14T05:33:48.466Z,1013.84
2016-12-14T05:34:29.096Z,1013.82
2016-12-14T05:35:09.696Z,1013.83
2016-12-14T05:35:50.295Z,1013.83
2016-12-14T05:36:30.891Z,1013.84
2016-12-14T05:37:11.500Z,1013.84
2016-12-14T05:37:52.140Z,1013.87
2016-12-14T05:38:32.735Z,1013.83
2016-12-14T05:39:13.317Z,1013.83
2016-12-14T05:39:53.917Z,1013.84
2016-12-14T05:40:34.520Z,1013.86
2016-12-14T05:41:15.104Z,1013.84
2016-12-14T05:41:55.702Z,1013.86
2016-12-14T05:42:36.279Z,1013.85
2016-12-14T05:43:16.868Z,1013.87
2016-12-14T05:43:57.464Z,1013.87
2016-12-14T05:44:38.070Z,1013.85
2016-12-14T05:45:18.673Z,1013.87
2016-12-14T05:45:59.265Z,1013.87
2016-12-14T05:46:39.875Z,1013.88
2016-12-14T05:47:20.484Z,1013.87
2016-12-14T05:48:01.083Z,1013.9
2016-12-14T05:48:41.677Z,1013.88
2016-12-14T05:49:22.256Z,1013.91
2016-12-14T05:50:02.829Z,1013.89
2016-12-14T05:50:43.417Z,1013.92
2016-12-14T05:51:23.996Z,1013.91
2016-12-14T05:52:04.589Z,1013.95
2016-12-14T05:52:45.189Z,1013.91
2016-12-14T05:53:25.775Z,1013.92
2016-12-14T05:54:06.353Z,1013.91
2016-12-14T05:54:46.941Z,1013.91
2016-12-14T05:55:27.524Z,1013.92
2016-12-14T05:56:08.101Z,1013.93
2016-12-14T05:56:48.686Z,1013.89
2016-12-14T05:57:29.272Z,1013.91
2016-12-14T05:58:09.851Z,1013.9
2016-12-14T05:58:50.447Z,1013.91
2016-12-14T05:59:31.053Z,1013.91
2016-12-14T06:00:11.631Z,1013.92
2016-12-14T06:00:52.212Z,1013.91
2016-12-14T06:01:32.813Z,1013.91
2016-12-14T06:02:13.416Z,1013.95
2016-12-14T06:02:54.027Z,1013.91
2016-12-14T06:03:34.625Z,1013.92
2016-12-14T06:04:15.219Z,1013.89
2016-12-14T06:04:55.808Z,1013.89
2016-12-14T06:05:36.409Z,1013.89
2016-12-14T06:06:16.980Z,1013.88
2016-12-14T06:06:57.586Z,1013.86
2016-12-14T06:07:38.178Z,1013.89
2016-12-14T06:08:18.760Z,1013.87
2016-12-14T06:08:59.351Z,1013.9
2016-12-14T06:09:39.943Z,1013.87
2016-12-14T06:10:20.560Z,1013.89
2016-12-14T06:11:01.139Z,1013.9
2016-12-14T06:11:41.752Z,1013.92
2016-12-14T06:12:22.342Z,1013.9
2016-12-14T06:13:02.948Z,1013.86
2016-12-14T06:13:43.534Z,1013.88
2016-12-14T06:14:24.140Z,1013.89
2016-12-14T06:15:04.733Z,1013.89
2016-12-14T06:15:45.328Z,1013.87
2016-12-14T06:16:25.902Z,1013.88
2016-12-14T06:17:06.495Z,1013.87
2016-12-14T06:17:47.094Z,1013.88
2016-12-14T06:18:27.677Z,1013.89
2016-12-14T06:19:08.261Z,1013.9
2016-12-14T06:19:48.850Z,1013.91
2016-12-14T06:20:29.430Z,1013.87
2016-12-14T06:21:10.020Z,1013.89
2016-12-14T06:21:50.602Z,1013.89
2016-12-14T06:22:31.188Z,1013.89
2016-12-14T06:23:11.764Z,1013.89
2016-12-14T06:23:52.362Z,1013.88
2016-12-14T06:24:32.956Z,1013.89
2016-12-14T06:25:13.537Z,1013.91
2016-12-14T06:25:54.138Z,1013.91
2016-12-14T06:26:34.715Z,1013.87
2016-12-14T06:27:15.312Z,1013.9
2016-12-14T06:27:55.887Z,1013.88
2016-12-14T06:28:36.470Z,1013.87
2016-12-14T06:29:17.049Z,1013.86
2016-12-14T06:29:57.638Z,1013.85
2016-12-14T06:30:38.242Z,1013.86
2016-12-14T06:31:18.834Z,1013.86
2016-12-14T06:31:59.424Z,1013.86
2016-12-14T06:32:40.009Z,1013.83
2016-12-14T06:33:20.603Z,1013.84
2016-12-14T06:34:01.186Z,1013.81
2016-12-14T06:34:41.774Z,1013.8
2016-12-14T06:35:22.373Z,1013.82
2016-12-14T06:36:02.958Z,1013.79
2016-12-14T06:36:43.548Z,1013.81
2016-12-14T06:37:24.147Z,1013.85
2016-12-14T06:38:04.730Z,1013.83
2016-12-14T06:38:45.314Z,1013.83
2016-12-14T06:39:25.921Z,1013.85
2016-12-14T06:40:06.507Z,1013.83
2016-12-14T06:40:47.091Z,1013.8
2016-12-14T06:41:27.729Z,1013.8
2016-12-14T06:42:08.321Z,1013.79
2016-12-14T06:42:48.918Z,1013.79
2016-12-14T06:43:29.504Z,1013.78
2016-12-14T06:44:10.095Z,1013.78
2016-12-14T06:44:50.679Z,1013.78
2016-12-14T06:45:31.281Z,1013.79
2016-12-14T06:46:11.880Z,1013.76
2016-12-14T06:46:52.463Z,1013.76
2016-12-14T06:47:33.051Z,1013.77
2016-12-14T06:48:13.634Z,1013.78
2016-12-14T06:48:54.217Z,1013.76
2016-12-14T06:49:34.803Z,1013.76
2016-12-14T06:50:15.392Z,1013.76
2016-12-14T06:50:55.986Z,1013.78
2016-12-14T06:51:36.564Z,1013.79
2016-12-14T06:52:17.149Z,1013.77
2016-12-14T06:52:57.749Z,1013.81
2016-12-14T06:53:38.344Z,1013.79
2016-12-14T06:54:18.929Z,1013.78
2016-12-14T06:54:59.508Z,1013.78
2016-12-14T06:55:40.088Z,1013.79
2016-12-14T06:56:20.684Z,1013.79
2016-12-14T06:57:01.270Z,1013.84
2016-12-14T06:57:41.863Z,1013.81
2016-12-14T06:58:22.452Z,1013.81
2016-12-14T06:59:03.066Z,1013.82
2016-12-14T06:59:43.664Z,1013.8
2016-12-14T07:00:24.246Z,1013.79
2016-12-14T07:01:04.847Z,1013.76
2016-12-14T07:01:45.448Z,1013.75
2016-12-14T07:02:26.045Z,1013.77
2016-12-14T07:03:06.632Z,1013.75
2016-12-14T07:03:47.242Z,1013.76
2016-12-14T07:04:27.840Z,1013.77
2016-12-14T07:05:08.422Z,1013.74
2016-12-14T07:05:49.032Z,1013.76
2016-12-14T07:06:29.626Z,1013.75
2016-12-14T07:07:10.203Z,1013.74
2016-12-14T07:07:50.819Z,1013.73
2016-12-14T07:08:31.418Z,1013.72
2016-12-14T07:09:12.008Z,1013.75
2016-12-14T07:09:52.604Z,1013.75
2016-12-14T07:10:33.871Z,1013.74
2016-12-14T07:11:14.460Z,1013.74
2016-12-14T07:11:55.064Z,1013.76
2016-12-14T07:12:35.658Z,1013.7
2016-12-14T07:13:16.246Z,1013.73
2016-12-14T07:13:56.836Z,1013.74
2016-12-14T07:14:37.431Z,1013.72
2016-12-14T07:15:18.037Z,1013.74
2016-12-14T07:15:58.622Z,1013.76
2016-12-14T07:16:39.205Z,1013.77
2016-12-14T07:17:19.787Z,1013.77
2016-12-14T07:18:00.388Z,1013.76
2016-12-14T07:18:40.974Z,1013.78
2016-12-14T07:19:21.587Z,1013.78
2016-12-14T07:20:02.195Z,1013.78
2016-12-14T07:20:42.779Z,1013.76
2016-12-14T07:21:23.366Z,1013.78
2016-12-14T07:22:03.976Z,1013.8
2016-12-14T07:22:44.574Z,1013.82
2016-12-14T07:23:25.175Z,1013.79
2016-12-14T07:24:05.769Z,1013.79
2016-12-14T07:24:46.361Z,1013.83
2016-12-14T07:25:26.935Z,1013.84
2016-12-14T07:26:07.570Z,1013.84
2016-12-14T07:26:48.162Z,1013.84
2016-12-14T07:27:28.746Z,1013.85
2016-12-14T07:28:09.339Z,1013.88
2016-12-14T07:28:49.927Z,1013.84
2016-12-14T07:29:30.520Z,1013.87
2016-12-14T07:30:11.145Z,1013.86
2016-12-14T07:30:51.723Z,1013.83
2016-12-14T07:31:32.330Z,1013.84
2016-12-14T07:32:12.928Z,1013.85
2016-12-14T07:32:53.543Z,1013.84
2016-12-14T07:33:34.148Z,1013.84
2016-12-14T07:34:14.739Z,1013.83
2016-12-14T07:34:55.345Z,1013.89
2016-12-14T07:35:35.947Z,1013.86
2016-12-14T07:36:16.541Z,1013.87
2016-12-14T07:36:57.801Z,1013.84
2016-12-14T07:37:37.730Z,1013.89
2016-12-14T07:38:18.306Z,1013.92
2016-12-14T07:38:58.920Z,1013.9
2016-12-14T07:39:39.521Z,1013.86
2016-12-14T07:40:20.111Z,1013.9
2016-12-14T07:41:00.709Z,1013.87
2016-12-14T07:41:41.330Z,1013.9
2016-12-14T07:42:21.915Z,1013.92
2016-12-14T07:43:02.501Z,1013.9
2016-12-14T07:43:43.114Z,1013.94
2016-12-14T07:44:23.736Z,1013.93
2016-12-14T07:45:04.328Z,1013.92
2016-12-14T07:45:44.910Z,1013.9
2016-12-14T07:46:25.558Z,1013.93
2016-12-14T07:47:06.216Z,1013.95
2016-12-14T07:47:46.847Z,1013.93
2016-12-14T07:48:27.515Z,1013.92
2016-12-14T07:49:08.118Z,1013.88
2016-12-14T07:49:48.716Z,1013.94
2016-12-14T07:50:29.307Z,1013.95
2016-12-14T07:51:09.932Z,1013.93
2016-12-14T07:51:50.530Z,1013.93
2016-12-14T07:52:31.124Z,1013.94
2016-12-14T07:53:11.711Z,1013.94
2016-12-14T07:53:52.330Z,1013.96
2016-12-14T07:54:32.906Z,1013.95
2016-12-14T07:55:13.510Z,1013.95
2016-12-14T07:55:54.102Z,1013.96
2016-12-14T07:56:34.720Z,1013.93
2016-12-14T07:57:15.515Z,1013.93
2016-12-14T07:57:56.091Z,1013.95
2016-12-14T07:58:36.671Z,1013.97
2016-12-14T07:59:17.254Z,1013.94
2016-12-14T07:59:57.835Z,1013.98
2016-12-14T08:00:38.426Z,1013.92
2016-12-14T08:01:19.034Z,1013.96
2016-12-14T08:01:59.650Z,1013.96
2016-12-14T08:02:40.262Z,1014
2016-12-14T08:03:20.850Z,1013.95
2016-12-14T08:04:01.443Z,1013.98
2016-12-14T08:04:42.817Z,1013.96
2016-12-14T08:05:22.619Z,1014
2016-12-14T08:06:03.209Z,1013.99
2016-12-14T08:06:43.820Z,1014.02
2016-12-14T08:07:24.477Z,1014.01
2016-12-14T08:08:05.081Z,1014.04
2016-12-14T08:08:45.701Z,1014.04
2016-12-14T08:09:26.295Z,1014.04
2016-12-14T08:10:06.900Z,1014.03
2016-12-14T08:10:47.477Z,1014.07
2016-12-14T08:11:28.068Z,1014.08
2016-12-14T08:12:08.726Z,1014.07
2016-12-14T08:12:49.299Z,1014.08